createdAt,value
2018-06-05T00:01:11.016Z,18.78
2018-06-05T00:03:48.385Z,18.63
2018-06-05T00:06:19.886Z,18.54
2018-06-05T00:08:51.909Z,19.17
2018-06-05T00:11:20.769Z,18.68
2018-06-05T00:13:58.661Z,18.53
2018-06-05T00:16:41.267Z,19.11
2018-06-05T00:19:11.737Z,18.49
2018-06-05T00:21:42.558Z,18.34
2018-06-05T00:24:13.808Z,18.24
2018-06-05T00:26:45.620Z,18.16
2018-06-05T00:29:16.034Z,18.09
2018-06-05T00:31:45.530Z,18.73
2018-06-05T00:34:14.606Z,18.26
2018-06-05T00:36:43.943Z,18.12
2018-06-05T00:39:13.649Z,18.05
2018-06-05T00:41:44.575Z,17.97
2018-06-05T00:44:13.972Z,17.86
2018-06-05T00:46:43.148Z,17.75
2018-06-05T00:49:12.477Z,18.37
2018-06-05T00:51:59.920Z,17.84
2018-06-05T00:54:29.658Z,17.66
2018-06-05T00:57:00.179Z,18.30
2018-06-05T00:59:34.276Z,18.42
2018-06-05T01:04:52.008Z,18.39
2018-06-05T01:07:22.431Z,18.49
2018-06-05T01:09:51.611Z,17.90
2018-06-05T01:12:22.836Z,17.68
2018-06-05T01:14:54.412Z,17.57
2018-06-05T01:17:23.428Z,17.53
2018-06-05T01:19:52.656Z,17.49
2018-06-05T01:25:17.266Z,17.55
2018-06-05T01:27:46.242Z,18.34
2018-06-05T01:30:15.271Z,17.90
2018-06-05T01:32:44.143Z,17.85
2018-06-05T01:35:14.293Z,17.82
2018-06-05T01:37:48.813Z,17.82
2018-06-05T01:40:19.383Z,18.53
2018-06-05T01:42:48.892Z,18.73
2018-06-05T01:45:19.754Z,18.24
2018-06-05T01:47:48.979Z,18.83
2018-06-05T01:50:17.954Z,18.99
2018-06-05T01:52:47.640Z,18.43
2018-06-05T01:55:16.935Z,19.00
2018-06-05T01:57:53.237Z,18.46
2018-06-05T02:00:27.242Z,18.28
2018-06-05T02:02:56.302Z,18.21
2018-06-05T02:05:34.866Z,18.19
2018-06-05T02:08:20.483Z,18.19
2018-06-05T02:10:52.872Z,18.18
2018-06-05T02:13:22.307Z,18.19
2018-06-05T02:15:52.353Z,18.21
2018-06-05T02:18:22.556Z,18.21
2018-06-05T02:20:51.835Z,18.95
2018-06-05T02:23:21.560Z,18.52
2018-06-05T02:25:50.961Z,18.41
2018-06-05T02:28:20.094Z,18.35
2018-06-05T02:30:49.392Z,18.32
2018-06-05T02:33:18.633Z,18.31
2018-06-05T02:35:48.980Z,19.03
2018-06-05T02:38:20.420Z,18.53
2018-06-05T02:40:50.101Z,19.14
2018-06-05T02:43:19.410Z,18.64
2018-06-05T02:45:49.227Z,18.49
2018-06-05T02:48:19.170Z,18.45
2018-06-05T02:50:48.295Z,18.42
2018-06-05T02:53:19.297Z,18.41
2018-06-05T02:55:50.588Z,18.39
2018-06-05T02:58:22.314Z,18.34
2018-06-05T03:00:52.431Z,18.33
2018-06-05T03:03:22.156Z,19.01
2018-06-05T03:05:52.209Z,18.51
2018-06-05T03:08:21.424Z,18.41
2018-06-05T03:10:53.196Z,18.36
2018-06-05T03:13:22.353Z,18.33
2018-06-05T03:15:51.460Z,18.34
2018-06-05T03:18:21.504Z,18.34
2018-06-05T03:20:50.747Z,18.33
2018-06-05T03:23:20.031Z,18.32
2018-06-05T03:25:50.548Z,18.31
2018-06-05T03:28:23.569Z,18.30
2018-06-05T03:30:53.031Z,18.28
2018-06-05T03:33:24.866Z,18.25
2018-06-05T03:35:56.378Z,18.24
2018-06-05T03:38:27.260Z,18.23
2018-06-05T03:40:58.347Z,18.94
2018-06-05T03:43:29.061Z,18.46
2018-06-05T03:45:58.420Z,18.38
2018-06-05T03:48:27.747Z,18.35
2018-06-05T03:50:57.240Z,18.33
2018-06-05T03:53:27.201Z,18.34
2018-06-05T03:55:58.944Z,18.34
2018-06-05T03:58:28.066Z,18.35
2018-06-05T04:01:07.709Z,18.34
2018-06-05T04:03:37.077Z,18.33
2018-06-05T04:06:06.472Z,18.33
2018-06-05T04:08:35.869Z,18.33
2018-06-05T04:11:05.214Z,18.33
2018-06-05T04:13:39.826Z,18.30
2018-06-05T04:16:09.255Z,18.32
2018-06-05T04:18:38.902Z,18.34
2018-06-05T04:21:08.493Z,18.37
2018-06-05T04:23:38.999Z,18.39
2018-06-05T04:26:12.241Z,18.41
2018-06-05T04:28:41.272Z,18.44
2018-06-05T04:31:11.618Z,18.43
2018-06-05T04:33:41.580Z,18.45
2018-06-05T04:36:11.830Z,18.45
2018-06-05T04:38:40.729Z,18.48
2018-06-05T04:41:20.391Z,18.51
2018-06-05T04:43:51.648Z,18.52
2018-06-05T04:46:28.155Z,18.55
2018-06-05T04:51:51.797Z,18.58
2018-06-05T04:54:20.917Z,18.56
2018-06-05T04:56:51.273Z,19.39
2018-06-05T04:59:20.270Z,18.89
2018-06-05T05:01:49.552Z,19.61
2018-06-05T05:04:18.561Z,19.12
2018-06-05T05:06:50.021Z,19.01
2018-06-05T05:09:18.813Z,19.78
2018-06-05T05:11:47.744Z,19.97
2018-06-05T05:14:17.125Z,20.07
2018-06-05T05:16:48.528Z,19.49
2018-06-05T05:19:24.806Z,19.38
2018-06-05T05:24:43.030Z,19.29
2018-06-05T05:27:23.848Z,19.27
2018-06-05T05:32:41.986Z,20.01
2018-06-05T05:35:17.060Z,19.48
2018-06-05T05:37:54.204Z,19.40
2018-06-05T05:40:24.182Z,19.36
2018-06-05T05:43:08.433Z,19.33
2018-06-05T05:48:27.965Z,19.53
2018-06-05T05:51:16.057Z,19.44
2018-06-05T05:56:33.583Z,19.35
2018-06-05T05:59:11.553Z,19.33
2018-06-05T06:01:50.282Z,19.29
2018-06-05T06:07:18.329Z,19.30
2018-06-05T06:12:51.172Z,19.31
2018-06-05T06:15:22.314Z,19.32
2018-06-05T06:17:56.180Z,19.35
2018-06-05T06:20:28.461Z,19.32
2018-06-05T06:23:02.162Z,19.28
2018-06-05T06:28:20.538Z,19.32
2018-06-05T06:33:44.510Z,19.36
2018-06-05T06:39:06.651Z,19.43
2018-06-05T06:41:40.045Z,19.46
2018-06-05T06:44:10.118Z,19.51
2018-06-05T06:46:58.288Z,19.54
2018-06-05T06:49:29.481Z,19.60
2018-06-05T06:54:55.868Z,19.62
2018-06-05T07:00:31.612Z,19.62
2018-06-05T07:03:00.536Z,20.51
2018-06-05T07:08:30.773Z,19.74
2018-06-05T07:11:00.682Z,19.66
2018-06-05T07:13:35.314Z,19.68
2018-06-05T07:16:07.528Z,19.70
2018-06-05T07:18:39.895Z,19.71
2018-06-05T07:21:14.377Z,19.74
2018-06-05T07:23:46.338Z,19.77
2018-06-05T07:26:23.361Z,19.77
2018-06-05T07:28:54.403Z,19.78
2018-06-05T07:34:15.598Z,19.83
2018-06-05T07:39:33.692Z,19.89
2018-06-05T07:42:03.731Z,20.02
2018-06-05T07:44:38.829Z,20.10
2018-06-05T07:47:10.674Z,21.13
2018-06-05T07:49:44.747Z,20.58
2018-06-05T07:52:23.873Z,21.42
2018-06-05T07:55:02.040Z,20.79
2018-06-05T07:57:49.282Z,20.65
2018-06-05T08:00:26.349Z,20.51
2018-06-05T08:08:41.841Z,20.39
2018-06-05T08:11:24.043Z,20.38
2018-06-05T08:16:43.893Z,20.34
2018-06-05T08:19:28.397Z,20.31
2018-06-05T08:22:14.797Z,20.27
2018-06-05T08:24:43.996Z,20.26
2018-06-05T08:27:17.326Z,20.26
2018-06-05T08:29:51.205Z,20.23
2018-06-05T08:32:24.712Z,20.26
2018-06-05T08:34:57.148Z,20.31
2018-06-05T08:37:26.199Z,21.27
2018-06-05T08:39:55.239Z,20.61
2018-06-05T08:42:24.493Z,20.49
2018-06-05T08:44:53.449Z,20.40
2018-06-05T08:47:24.566Z,20.33
2018-06-05T08:49:54.718Z,20.25
2018-06-05T08:52:29.986Z,20.21
2018-06-05T08:54:59.006Z,21.27
2018-06-05T08:57:27.993Z,21.58
2018-06-05T09:00:07.566Z,20.83
2018-06-05T09:02:43.470Z,20.65
2018-06-05T09:05:15.126Z,20.65
2018-06-05T09:07:48.611Z,21.70
2018-06-05T09:10:22.130Z,21.04
2018-06-05T09:12:53.189Z,21.98
2018-06-05T09:15:22.231Z,21.27
2018-06-05T09:17:53.582Z,21.10
2018-06-05T09:20:35.094Z,21.05
2018-06-05T09:23:05.542Z,21.03
2018-06-05T09:28:34.318Z,21.05
2018-06-05T09:31:07.830Z,21.10
2018-06-05T09:33:39.237Z,21.16
2018-06-05T09:38:57.003Z,21.07
2018-06-05T09:41:31.127Z,21.17
2018-06-05T09:46:50.427Z,22.40
2018-06-05T09:52:06.928Z,22.08
2018-06-05T09:54:43.350Z,23.23
2018-06-05T09:57:13.716Z,22.34
2018-06-05T09:59:42.846Z,22.36
2018-06-05T10:02:11.740Z,22.44
2018-06-05T10:04:40.675Z,22.54
2018-06-05T10:07:13.386Z,22.63
2018-06-05T10:09:47.051Z,22.66
2018-06-05T10:12:20.886Z,22.54
2018-06-05T10:17:42.938Z,22.54
2018-06-05T10:20:14.472Z,22.59
2018-06-05T10:22:43.992Z,22.69
2018-06-05T10:25:15.916Z,22.73
2018-06-05T10:27:48.317Z,22.85
2018-06-05T10:30:17.873Z,22.94
2018-06-05T10:38:32.845Z,23.42
2018-06-05T10:43:58.257Z,24.07
2018-06-05T10:49:27.624Z,23.94
2018-06-05T10:51:58.492Z,24.00
2018-06-05T10:54:31.460Z,24.06
2018-06-05T10:57:12.865Z,24.39
2018-06-05T10:59:58.041Z,24.65
2018-06-05T11:02:27.038Z,24.78
2018-06-05T11:05:01.326Z,24.99
2018-06-05T11:07:32.800Z,26.80
2018-06-05T11:10:01.729Z,25.99
2018-06-05T11:15:19.559Z,26.26
2018-06-05T11:17:59.184Z,26.33
2018-06-05T11:23:17.536Z,26.99
2018-06-05T11:25:56.310Z,27.03
2018-06-05T11:28:28.617Z,26.75
2018-06-05T11:31:10.172Z,26.64
2018-06-05T11:33:43.397Z,26.50
2018-06-05T11:36:14.204Z,26.55
2018-06-05T11:38:53.441Z,26.62
2018-06-05T11:41:25.512Z,26.66
2018-06-05T11:44:07.763Z,27.06
2018-06-05T11:46:43.833Z,27.80
2018-06-05T11:49:16.949Z,27.88
2018-06-05T11:51:54.917Z,27.71
2018-06-05T11:54:35.728Z,29.01
2018-06-05T12:05:36.804Z,27.37
2018-06-05T12:11:01.420Z,27.29
2018-06-05T12:13:31.959Z,27.50
2018-06-05T12:16:04.349Z,27.80
2018-06-05T12:21:28.684Z,27.90
2018-06-05T12:29:48.151Z,27.58
2018-06-05T12:32:30.585Z,27.77
2018-06-05T12:35:01.200Z,27.77
2018-06-05T12:37:33.871Z,28.93
2018-06-05T12:40:04.253Z,27.86
2018-06-05T12:45:29.862Z,28.01
2018-06-05T12:48:02.305Z,28.10
2018-06-05T12:50:37.882Z,29.18
2018-06-05T12:53:06.820Z,28.22
2018-06-05T12:55:37.704Z,28.10
2018-06-05T12:58:16.304Z,28.20
2018-06-05T13:09:15.164Z,28.39
2018-06-05T13:14:37.251Z,28.78
2018-06-05T13:17:08.810Z,28.83
2018-06-05T13:19:47.393Z,28.77
2018-06-05T13:22:18.976Z,28.64
2018-06-05T13:24:53.553Z,28.57
2018-06-05T13:32:59.208Z,28.69
2018-06-05T13:35:36.239Z,28.70
2018-06-05T13:38:24.236Z,28.83
2018-06-05T13:40:59.025Z,29.97
2018-06-05T13:43:37.460Z,29.04
2018-06-05T13:51:58.495Z,29.18
2018-06-05T13:54:28.848Z,29.38
2018-06-05T13:59:47.949Z,29.71
2018-06-05T14:02:22.124Z,29.76
2018-06-05T14:07:52.085Z,30.72
2018-06-05T14:15:58.339Z,29.87
2018-06-05T14:18:30.321Z,29.83
2018-06-05T14:20:59.454Z,30.77
2018-06-05T14:26:19.241Z,30.02
2018-06-05T14:28:58.457Z,30.01
2018-06-05T14:34:18.708Z,30.18
2018-06-05T14:36:52.874Z,30.32
2018-06-05T14:39:23.171Z,30.38
2018-06-05T14:44:42.341Z,32.44
2018-06-05T14:50:01.497Z,32.45
2018-06-05T14:52:32.561Z,32.58
2018-06-05T14:55:05.376Z,32.75
2018-06-05T14:57:37.290Z,32.98
2018-06-05T15:00:08.595Z,33.28
2018-06-05T15:02:37.316Z,33.44
2018-06-05T15:05:05.994Z,33.53
2018-06-05T15:07:39.114Z,33.79
2018-06-05T15:10:07.741Z,33.96
2018-06-05T15:12:38.356Z,34.06
2018-06-05T15:15:07.367Z,34.24
2018-06-05T15:17:36.723Z,34.25
2018-06-05T15:23:02.294Z,34.13
2018-06-05T15:25:31.165Z,34.18
2018-06-05T15:28:00.270Z,34.16
2018-06-05T15:30:31.488Z,34.28
2018-06-05T15:35:48.035Z,35.10
2018-06-05T15:38:21.278Z,35.07
2018-06-05T15:40:50.766Z,34.97
2018-06-05T15:54:35.840Z,35.53
2018-06-05T15:57:05.274Z,35.76
2018-06-05T15:59:34.801Z,35.89
2018-06-05T16:02:09.190Z,35.83
2018-06-05T16:04:38.275Z,35.86
2018-06-05T16:07:11.605Z,35.94
2018-06-05T16:09:44.801Z,35.98
2018-06-05T16:18:01.923Z,36.83
2018-06-05T16:59:51.534Z,37.96
2018-06-05T17:02:20.430Z,38.01
2018-06-05T17:04:50.959Z,38.27
2018-06-05T17:07:24.742Z,38.48
2018-06-05T17:09:53.732Z,40.65
2018-06-05T17:12:22.626Z,39.32
2018-06-05T17:14:51.967Z,39.21
2018-06-05T17:17:25.679Z,39.16
2018-06-05T17:19:55.241Z,39.08
2018-06-05T17:22:26.557Z,39.09
2018-06-05T17:24:55.562Z,39.04
2018-06-05T17:27:24.726Z,41.02
2018-06-05T17:30:07.095Z,39.42
2018-06-05T17:32:39.800Z,39.17
2018-06-05T17:35:27.784Z,39.08
2018-06-05T17:38:02.510Z,39.06
2018-06-05T17:40:43.040Z,39.10
2018-06-05T17:43:13.443Z,39.06
2018-06-05T17:45:42.805Z,39.05
2018-06-05T17:48:11.661Z,39.00
2018-06-05T17:50:47.211Z,38.87
2018-06-05T17:53:28.462Z,38.33
2018-06-05T17:55:59.311Z,37.23
2018-06-05T17:58:31.128Z,36.16
2018-06-05T18:01:01.134Z,35.22
2018-06-05T18:03:33.594Z,36.24
2018-06-05T18:06:04.601Z,35.64
2018-06-05T18:08:33.669Z,35.01
2018-06-05T18:11:03.728Z,34.44
2018-06-05T18:13:33.931Z,32.89
2018-06-05T18:16:05.626Z,32.18
2018-06-05T18:18:38.494Z,31.55
2018-06-05T18:21:07.661Z,31.01
2018-06-05T18:23:36.744Z,30.48
2018-06-05T18:26:10.393Z,30.04
2018-06-05T18:28:39.362Z,29.61
2018-06-05T18:31:17.571Z,29.22
2018-06-05T18:33:52.523Z,28.84
2018-06-05T18:36:40.898Z,28.51
2018-06-05T18:39:12.191Z,28.16
2018-06-05T18:44:48.815Z,27.40
2018-06-05T18:50:11.554Z,26.83
2018-06-05T18:52:46.574Z,26.61
2018-06-05T18:58:14.217Z,26.86
2018-06-05T19:03:36.147Z,26.31
2018-06-05T19:20:04.136Z,23.74
2018-06-05T19:25:30.760Z,23.18
2018-06-05T20:42:58.823Z,20.35
2018-06-05T20:48:18.960Z,20.22
2018-06-05T20:53:38.890Z,20.33
2018-06-05T20:56:11.826Z,20.18
2018-06-05T20:58:46.116Z,20.06
2018-06-05T21:01:33.786Z,19.98
2018-06-05T21:06:55.706Z,19.81
2018-06-05T21:09:28.726Z,19.77
2018-06-05T21:17:39.062Z,20.35
2018-06-05T21:20:19.575Z,19.80
2018-06-05T21:22:52.424Z,19.66
2018-06-05T21:25:22.911Z,19.57
2018-06-05T21:27:53.139Z,19.48
2018-06-05T21:30:25.224Z,20.11
2018-06-05T21:32:55.441Z,19.54
2018-06-05T21:35:33.836Z,19.38
2018-06-05T21:43:43.339Z,19.09
2018-06-05T21:46:16.935Z,19.03
2018-06-05T21:57:12.788Z,18.71
2018-06-05T22:02:30.824Z,18.85
2018-06-05T22:05:18.882Z,18.74
2018-06-05T22:16:15.091Z,18.65
2018-06-05T22:21:37.802Z,18.51
2018-06-05T22:24:09.467Z,18.45
2018-06-05T22:35:06.638Z,18.17
2018-06-05T22:45:59.732Z,18.07
2018-06-05T22:59:46.543Z,17.76
2018-06-05T23:02:32.283Z,17.71
2018-06-05T23:07:57.128Z,17.47
2018-06-05T23:10:29.750Z,17.43
2018-06-05T23:13:00.783Z,17.40
2018-06-05T23:15:29.688Z,17.33
2018-06-05T23:18:00.636Z,17.29
2018-06-05T23:20:29.491Z,17.28
2018-06-05T23:22:58.751Z,17.30
2018-06-05T23:25:29.088Z,17.33
2018-06-05T23:28:00.782Z,17.34
2018-06-05T23:30:34.872Z,17.36
2018-06-05T23:33:07.854Z,17.36
2018-06-05T23:35:44.032Z,17.35
2018-06-05T23:38:16.005Z,17.33
2018-06-05T23:40:45.343Z,17.33
2018-06-05T23:43:17.337Z,17.32
2018-06-05T23:45:47.176Z,17.29
2018-06-05T23:48:18.052Z,17.26
2018-06-05T23:50:50.828Z,17.23
2018-06-05T23:56:08.710Z,17.36
2018-06-05T23:58:51.821Z,17.27
